Plum, Texas
Current Conditions -  °F | °C
As of 11:35 AM on Tuesday 21 Oct 2014 (Local Time) from K3T5 Reporting Station
Haze Haze  
Wind Chill: 75°   Ceiling: Unl
Heat Index: 75°   Visibility: 5mi
Dew Point: 59°   Wind: 7mph
Humidity: 56%   Direction: 60°ENE
Pressure: 30.07"   Gusts: NA
Location:  29.93°N, 96.97°W
Report Text: K3T5 211635Z AUTO 06006KT 5SM HZ CLR 24/15 A3007 RMK AO2 T02410148
Loading
Personal Weather Stations






























Interactive Weather Map
Tropical Storm Tracking
New forecast layout! Learn more

10-Day Weather Forecast

Advertisements
Track Severe Weather on mobile